Koei Maru — JD3326 — position and weather

sailwx.info

Track history (hours):
 
Tides and Currents Weather Stations Pressure Air Temp Water Temp Dewpoint Dewpoint Depression Visibility Wind Speed Wind Dir Waves Ship Positions

Koei Maru

Last reported at 2017-Dec-09 01:10 UTC. Time now 2017-Dec-11 19:15 UTC.
Position N 34°42' E 134°36'.

Length 74 m.

Type: Cargo ship. MMSI: 431003269.

Date/timePositionNaut miles runAvg speedWind from/ knotsBaromVisibWave heightAir tempDewpointWater temp
2017-Dec-09 01:10N 34°42' E 134°36'312.5
2017-Dec-09 00:55N 34°42' E 134°39'512.3
2017-Dec-09 00:29N 34°42' E 134°46'4 0.2
2017-Dec-08 05:35N 34°43' E 134°51'0 2.6
2017-Dec-08 05:30N 34°43' E 134°51'2 3.6
2017-Dec-08 04:58N 34°41' E 134°49'610.9
2017-Dec-08 04:25N 34°42' E 134°42'  
2017-Dec-03 13:02N 34°42' E 134°36'412.8
2017-Dec-03 12:44N 34°42' E 134°40'512.6
2017-Dec-03 12:19N 34°41' E 134°47'4 0.7
2017-Dec-03 06:40N 34°43' E 134°51'1 4.9
2017-Dec-03 06:29N 34°42' E 134°50'510.0
2017-Dec-03 06:00N 34°42' E 134°44'5 0.2
2017-Dec-02 03:44N 34°42' E 134°38'312.2
2017-Dec-02 03:28N 34°42' E 134°42'611.8
2017-Dec-02 03:00N 34°41' E 134°49'2 0.4
2017-Dec-01 21:31N 34°43' E 134°50'0 4.6
2017-Dec-01 21:30N 34°43' E 134°50'4 7.9
2017-Dec-01 21:00N 34°41' E 134°46'510.6
2017-Dec-01 20:29N 34°42' E 134°39'3 0.1
2017-Nov-30 18:19N 34°42' E 134°36'412.5
2017-Nov-30 18:00N 34°42' E 134°41'612.2
2017-Nov-30 17:30N 34°41' E 134°48'3 0.1
2017-Nov-29 15:53N 34°43' E 134°51'1 2.2
2017-Nov-29 15:30N 34°42' E 134°50'5 9.4
2017-Nov-29 14:59N 34°42' E 134°44'  
Track history (hours):
 
Tides and Currents Weather Stations Pressure Air Temp Water Temp Dewpoint Dewpoint Depression Visibility Wind Speed Wind Dir Waves Ship Positions

Koei Maru

Last reported at 2017-Dec-09 01:10 UTC. Time now 2017-Dec-11 19:15 UTC.
Position N 34°42' E 134°36'.

Length 74 m.

Type: Cargo ship. MMSI: 431003269.

Date/timePositionNaut miles runAvg speedWind from/ knotsBaromVisibWave heightAir tempDewpointWater temp
2017-Dec-09 01:10N 34°42' E 134°36'312.5
2017-Dec-09 00:55N 34°42' E 134°39'512.3
2017-Dec-09 00:29N 34°42' E 134°46'4 0.2
2017-Dec-08 05:35N 34°43' E 134°51'0 2.6
2017-Dec-08 05:30N 34°43' E 134°51'2 3.6
2017-Dec-08 04:58N 34°41' E 134°49'610.9
2017-Dec-08 04:25N 34°42' E 134°42'  
2017-Dec-03 13:02N 34°42' E 134°36'412.8
2017-Dec-03 12:44N 34°42' E 134°40'512.6
2017-Dec-03 12:19N 34°41' E 134°47'4 0.7
2017-Dec-03 06:40N 34°43' E 134°51'1 4.9
2017-Dec-03 06:29N 34°42' E 134°50'510.0
2017-Dec-03 06:00N 34°42' E 134°44'5 0.2
2017-Dec-02 03:44N 34°42' E 134°38'312.2
2017-Dec-02 03:28N 34°42' E 134°42'611.8
2017-Dec-02 03:00N 34°41' E 134°49'2 0.4
2017-Dec-01 21:31N 34°43' E 134°50'0 4.6
2017-Dec-01 21:30N 34°43' E 134°50'4 7.9
2017-Dec-01 21:00N 34°41' E 134°46'510.6
2017-Dec-01 20:29N 34°42' E 134°39'3 0.1
2017-Nov-30 18:19N 34°42' E 134°36'412.5
2017-Nov-30 18:00N 34°42' E 134°41'612.2
2017-Nov-30 17:30N 34°41' E 134°48'3 0.1
2017-Nov-29 15:53N 34°43' E 134°51'1 2.2
2017-Nov-29 15:30N 34°42' E 134°50'5 9.4
2017-Nov-29 14:59N 34°42' E 134°44'  

Dump ship's entire track history